Terminal Aerodrome Forecast
Issued by NWS Memphis, TN

Current Version | Previous Version | Text Only | Print | Product List | Glossary On
Versions: 1 2 3 4 5 6 7 8 9 10 11 12 13 14 15
000
FTUS44 KMEG 281130
TAFJBR
TAF
KJBR 281130Z 2812/2912 VRB03KT P6SM SKC
      TEMPO 2812/2813 4SM BR
     FM281500 23007KT P6SM SCT050
     FM290100 00000KT P6SM SKC=

USA.gov is the U.S. government's official web portal to all federal, state and local government web resources and services.